GIA253 WADD-WAHI
Flight info
| Callsign | GIA253 |
|---|---|
| Flight time | 1h 13m |
| Altitude | 32000 |
| Route | OKANG DCT SBR DCT PURWO W17N SO |
| Aircraft | B38M/M-SDE1FGHILORVWXY/HB1 |
Departure
| Time | 2026-05-06 08:44 |
|---|---|
| Airport | Denpasar I Gusti Ngurah Rai International Airport (WADD) |
Arrival
| Time | 2026-05-06 09:57 |
|---|---|
| Airport | Yogyakarta International Airport (WAHI) |
| Time | Latitude | Longitude | Altitude | Speed | Heading |
|---|---|---|---|---|---|
| 2026-05-06 08:36 | -8.74663 | 115.16344 | 35 ft | 4 kts | 352° |
| 2026-05-06 08:37 | -8.74685 | 115.16354 | 35 ft | 4 kts | 307° |
| 2026-05-06 08:37 | -8.74693 | 115.16378 | 35 ft | 4 kts | 272° |
| 2026-05-06 08:37 | -8.74693 | 115.16395 | 35 ft | 1 kts | 268° |
| 2026-05-06 08:41 | -8.74694 | 115.16378 | 35 ft | 5 kts | 268° |
| 2026-05-06 08:41 | -8.74696 | 115.16315 | 35 ft | 13 kts | 268° |
| 2026-05-06 08:42 | -8.74699 | 115.16243 | 35 ft | 17 kts | 267° |
| 2026-05-06 08:42 | -8.74705 | 115.16096 | 35 ft | 24 kts | 268° |
| 2026-05-06 08:42 | -8.74713 | 115.15902 | 35 ft | 31 kts | 267° |
| 2026-05-06 08:42 | -8.74721 | 115.15682 | 35 ft | 28 kts | 267° |
| 2026-05-06 08:43 | -8.74729 | 115.15493 | 35 ft | 23 kts | 268° |
| 2026-05-06 08:43 | -8.74807 | 115.15395 | 33 ft | 22 kts | 183° |
| 2026-05-06 08:43 | -8.74896 | 115.15496 | 31 ft | 29 kts | 87° |
| 2026-05-06 08:43 | -8.74878 | 115.15922 | 31 ft | 98 kts | 87° |
| 2026-05-06 08:44 | -8.74844 | 115.16853 | 53 ft | 162 kts | 89° |
| 2026-05-06 08:44 | -8.74774 | 115.18052 | 761 ft | 169 kts | 89° |
| 2026-05-06 08:44 | -8.74712 | 115.19258 | 1725 ft | 174 kts | 88° |
| 2026-05-06 08:44 | -8.74629 | 115.20552 | 2369 ft | 195 kts | 89° |
| 2026-05-06 08:45 | -8.74583 | 115.21962 | 3222 ft | 206 kts | 89° |
| 2026-05-06 08:45 | -8.74521 | 115.23466 | 4029 ft | 220 kts | 88° |
| 2026-05-06 08:45 | -8.74444 | 115.25031 | 4915 ft | 230 kts | 86° |
| 2026-05-06 08:45 | -8.74370 | 115.26666 | 5788 ft | 236 kts | 86° |
| 2026-05-06 08:46 | -8.74293 | 115.28343 | 6669 ft | 241 kts | 86° |
| 2026-05-06 08:46 | -8.74222 | 115.30067 | 7461 ft | 249 kts | 86° |
| 2026-05-06 08:46 | -8.74156 | 115.31821 | 8387 ft | 251 kts | 87° |
| 2026-05-06 08:46 | -8.74078 | 115.33638 | 8835 ft | 268 kts | 86° |
| 2026-05-06 08:47 | -8.73990 | 115.35557 | 8933 ft | 277 kts | 87° |
| 2026-05-06 08:47 | -8.73911 | 115.37521 | 8944 ft | 281 kts | 87° |
| 2026-05-06 08:47 | -8.73828 | 115.39500 | 8945 ft | 282 kts | 86° |
| 2026-05-06 08:47 | -8.73740 | 115.41478 | 8982 ft | 281 kts | 87° |
| 2026-05-06 08:48 | -8.73656 | 115.43458 | 9006 ft | 283 kts | 87° |
| 2026-05-06 08:48 | -8.73562 | 115.45433 | 9016 ft | 281 kts | 86° |
| 2026-05-06 08:48 | -8.73452 | 115.47409 | 9045 ft | 282 kts | 86° |
| 2026-05-06 08:48 | -8.73298 | 115.49381 | 9131 ft | 282 kts | 81° |
| 2026-05-06 08:49 | -8.72740 | 115.51278 | 9082 ft | 283 kts | 62° |
| 2026-05-06 08:49 | -8.71498 | 115.52798 | 9024 ft | 282 kts | 45° |
| 2026-05-06 08:49 | -8.70116 | 115.54223 | 9003 ft | 284 kts | 47° |
| 2026-05-06 08:49 | -8.68729 | 115.55652 | 9007 ft | 285 kts | 46° |
| 2026-05-06 08:50 | -8.67333 | 115.57076 | 9015 ft | 285 kts | 46° |
| 2026-05-06 08:50 | -8.65919 | 115.58509 | 9005 ft | 295 kts | 46° |
| 2026-05-06 08:50 | -8.64420 | 115.60018 | 9001 ft | 313 kts | 46° |
| 2026-05-06 08:50 | -8.62837 | 115.61609 | 8997 ft | 330 kts | 46° |
| 2026-05-06 08:51 | -8.61180 | 115.63272 | 8996 ft | 338 kts | 46° |
| 2026-05-06 08:51 | -8.59495 | 115.64962 | 8999 ft | 343 kts | 46° |
| 2026-05-06 08:51 | -8.57797 | 115.66664 | 9003 ft | 344 kts | 46° |
| 2026-05-06 08:51 | -8.55956 | 115.68219 | 9407 ft | 348 kts | 31° |
| 2026-05-06 08:52 | -8.53679 | 115.69053 | 10296 ft | 353 kts | 10° |
| 2026-05-06 08:52 | -8.51195 | 115.69029 | 10899 ft | 365 kts | 349° |
| 2026-05-06 08:52 | -8.48829 | 115.68084 | 11635 ft | 370 kts | 328° |
| 2026-05-06 08:52 | -8.46901 | 115.66359 | 12313 ft | 374 kts | 307° |
| 2026-05-06 08:53 | -8.45636 | 115.64073 | 13017 ft | 375 kts | 288° |
| 2026-05-06 08:53 | -8.45085 | 115.61508 | 13718 ft | 375 kts | 272° |
| 2026-05-06 08:53 | -8.45019 | 115.58876 | 14330 ft | 377 kts | 269° |
| 2026-05-06 08:53 | -8.45022 | 115.56220 | 14950 ft | 379 kts | 268° |
| 2026-05-06 08:54 | -8.45063 | 115.53548 | 15566 ft | 381 kts | 267° |
| 2026-05-06 08:54 | -8.45122 | 115.50867 | 16163 ft | 383 kts | 267° |
| 2026-05-06 08:54 | -8.45193 | 115.48172 | 16731 ft | 385 kts | 267° |
| 2026-05-06 08:54 | -8.45271 | 115.45487 | 17277 ft | 388 kts | 267° |
| 2026-05-06 08:55 | -8.45354 | 115.42750 | 17823 ft | 390 kts | 267° |
| 2026-05-06 08:55 | -8.45438 | 115.40001 | 18299 ft | 393 kts | 267° |
| 2026-05-06 08:55 | -8.45523 | 115.37232 | 18742 ft | 395 kts | 267° |
| 2026-05-06 08:55 | -8.45609 | 115.34431 | 19172 ft | 398 kts | 267° |
| 2026-05-06 08:56 | -8.45694 | 115.31627 | 19593 ft | 400 kts | 267° |
| 2026-05-06 08:56 | -8.45782 | 115.28810 | 19994 ft | 403 kts | 267° |
| 2026-05-06 08:56 | -8.45874 | 115.25972 | 20397 ft | 405 kts | 267° |
| 2026-05-06 08:56 | -8.45967 | 115.23121 | 20781 ft | 408 kts | 267° |
| 2026-05-06 08:57 | -8.46059 | 115.20255 | 21180 ft | 410 kts | 267° |
| 2026-05-06 08:57 | -8.46151 | 115.17406 | 21550 ft | 412 kts | 267° |
| 2026-05-06 08:57 | -8.46244 | 115.14511 | 21917 ft | 414 kts | 267° |
| 2026-05-06 08:57 | -8.46338 | 115.11593 | 22283 ft | 416 kts | 267° |
| 2026-05-06 08:58 | -8.46431 | 115.08664 | 22634 ft | 419 kts | 267° |
| 2026-05-06 08:58 | -8.46525 | 115.05718 | 22989 ft | 421 kts | 267° |
| 2026-05-06 08:58 | -8.46357 | 115.02771 | 23281 ft | 424 kts | 281° |
| 2026-05-06 08:58 | -8.45395 | 114.99953 | 23621 ft | 426 kts | 296° |
| 2026-05-06 08:59 | -8.43705 | 114.97485 | 23868 ft | 431 kts | 311° |
| 2026-05-06 08:59 | -8.41398 | 114.95512 | 24147 ft | 435 kts | 324° |
| 2026-05-06 08:59 | -8.38873 | 114.93849 | 24425 ft | 437 kts | 325° |
| 2026-05-06 08:59 | -8.36272 | 114.92193 | 24668 ft | 441 kts | 327° |
| 2026-05-06 09:00 | -8.33653 | 114.90605 | 24948 ft | 442 kts | 327° |
| 2026-05-06 09:00 | -8.30973 | 114.89004 | 25214 ft | 444 kts | 328° |
| 2026-05-06 09:00 | -8.28325 | 114.87430 | 25472 ft | 446 kts | 328° |
| 2026-05-06 09:00 | -8.25648 | 114.85840 | 25740 ft | 448 kts | 328° |
| 2026-05-06 09:01 | -8.22950 | 114.84238 | 26007 ft | 450 kts | 328° |
| 2026-05-06 09:01 | -8.20258 | 114.82640 | 26274 ft | 452 kts | 328° |
| 2026-05-06 09:01 | -8.17523 | 114.81016 | 26526 ft | 454 kts | 328° |
| 2026-05-06 09:01 | -8.14795 | 114.79396 | 26776 ft | 456 kts | 328° |
| 2026-05-06 09:02 | -8.12056 | 114.77770 | 27034 ft | 458 kts | 328° |
| 2026-05-06 09:02 | -8.09299 | 114.76135 | 27283 ft | 460 kts | 328° |
| 2026-05-06 09:02 | -8.06537 | 114.74496 | 27542 ft | 462 kts | 328° |
| 2026-05-06 09:02 | -8.03762 | 114.72850 | 27783 ft | 464 kts | 328° |
| 2026-05-06 09:03 | -8.00975 | 114.71197 | 28032 ft | 465 kts | 328° |
| 2026-05-06 09:03 | -7.98177 | 114.69538 | 28269 ft | 467 kts | 328° |
| 2026-05-06 09:03 | -7.95370 | 114.67872 | 28504 ft | 469 kts | 328° |
| 2026-05-06 09:03 | -7.92766 | 114.65908 | 28740 ft | 468 kts | 314° |
| 2026-05-06 09:04 | -7.90708 | 114.63369 | 28959 ft | 468 kts | 300° |
| 2026-05-06 09:04 | -7.89327 | 114.60406 | 29149 ft | 468 kts | 287° |
| 2026-05-06 09:04 | -7.88342 | 114.57264 | 29361 ft | 470 kts | 286° |
| 2026-05-06 09:04 | -7.87411 | 114.54094 | 29570 ft | 472 kts | 285° |
| 2026-05-06 09:05 | -7.86524 | 114.50901 | 29808 ft | 474 kts | 284° |
| 2026-05-06 09:05 | -7.85655 | 114.47693 | 30011 ft | 475 kts | 284° |
| 2026-05-06 09:05 | -7.84797 | 114.44468 | 30202 ft | 477 kts | 284° |
| 2026-05-06 09:05 | -7.83942 | 114.41236 | 30422 ft | 477 kts | 283° |
| 2026-05-06 09:06 | -7.83092 | 114.38015 | 30636 ft | 478 kts | 283° |
| 2026-05-06 09:06 | -7.82238 | 114.34776 | 30896 ft | 478 kts | 283° |
| 2026-05-06 09:06 | -7.81385 | 114.31545 | 31187 ft | 476 kts | 283° |
| 2026-05-06 09:06 | -7.80533 | 114.28318 | 31491 ft | 475 kts | 283° |
| 2026-05-06 09:07 | -7.79685 | 114.25109 | 31766 ft | 475 kts | 283° |
| 2026-05-06 09:07 | -7.77992 | 114.18702 | 31852 ft | 473 kts | 283° |
| 2026-05-06 09:08 | -7.76293 | 114.12273 | 31851 ft | 474 kts | 283° |
| 2026-05-06 09:08 | -7.74533 | 114.05927 | 31860 ft | 474 kts | 285° |
| 2026-05-06 09:09 | -7.72688 | 113.99523 | 31846 ft | 474 kts | 285° |
| 2026-05-06 09:09 | -7.70855 | 113.93133 | 31846 ft | 474 kts | 285° |
| 2026-05-06 09:10 | -7.69022 | 113.86743 | 31853 ft | 475 kts | 285° |
| 2026-05-06 09:10 | -7.67179 | 113.80324 | 31851 ft | 475 kts | 285° |
| 2026-05-06 09:11 | -7.65341 | 113.73929 | 31855 ft | 475 kts | 285° |
| 2026-05-06 09:11 | -7.63509 | 113.67556 | 31852 ft | 475 kts | 285° |
| 2026-05-06 09:12 | -7.61669 | 113.61158 | 31843 ft | 475 kts | 285° |
| 2026-05-06 09:12 | -7.59828 | 113.54761 | 31839 ft | 475 kts | 285° |
| 2026-05-06 09:13 | -7.57987 | 113.48366 | 31833 ft | 475 kts | 285° |
| 2026-05-06 09:13 | -7.56145 | 113.41974 | 31839 ft | 475 kts | 285° |
| 2026-05-06 09:14 | -7.54302 | 113.35580 | 31839 ft | 475 kts | 285° |
| 2026-05-06 09:14 | -7.52461 | 113.29200 | 31840 ft | 475 kts | 285° |
| 2026-05-06 09:15 | -7.50617 | 113.22813 | 31828 ft | 474 kts | 285° |
| 2026-05-06 09:15 | -7.48772 | 113.16422 | 31822 ft | 474 kts | 285° |
| 2026-05-06 09:16 | -7.46937 | 113.10071 | 31829 ft | 474 kts | 285° |
| 2026-05-06 09:16 | -7.45092 | 113.03693 | 31822 ft | 475 kts | 285° |
| 2026-05-06 09:17 | -7.43246 | 112.97310 | 31818 ft | 474 kts | 285° |
| 2026-05-06 09:17 | -7.41397 | 112.90926 | 31809 ft | 474 kts | 285° |
| 2026-05-06 09:18 | -7.39549 | 112.84545 | 31804 ft | 475 kts | 285° |
| 2026-05-06 09:18 | -7.37707 | 112.78165 | 31803 ft | 474 kts | 283° |
| 2026-05-06 09:18 | -7.37237 | 112.74892 | 31811 ft | 473 kts | 272° |
| 2026-05-06 09:19 | -7.36962 | 112.71587 | 31811 ft | 474 kts | 275° |
| 2026-05-06 09:19 | -7.36359 | 112.64974 | 31809 ft | 474 kts | 274° |
| 2026-05-06 09:20 | -7.35787 | 112.58355 | 31815 ft | 474 kts | 274° |
| 2026-05-06 09:20 | -7.35218 | 112.51738 | 31811 ft | 474 kts | 274° |
| 2026-05-06 09:21 | -7.34648 | 112.45126 | 31819 ft | 474 kts | 274° |
| 2026-05-06 09:21 | -7.34076 | 112.38504 | 31820 ft | 474 kts | 274° |
| 2026-05-06 09:22 | -7.33503 | 112.31883 | 31815 ft | 475 kts | 274° |
| 2026-05-06 09:22 | -7.32930 | 112.25259 | 31813 ft | 474 kts | 274° |
| 2026-05-06 09:23 | -7.32355 | 112.18637 | 31807 ft | 475 kts | 274° |
| 2026-05-06 09:23 | -7.31779 | 112.12014 | 31808 ft | 475 kts | 274° |
| 2026-05-06 09:24 | -7.31206 | 112.05431 | 31806 ft | 475 kts | 274° |
| 2026-05-06 09:24 | -7.30627 | 111.98803 | 31803 ft | 475 kts | 275° |
| 2026-05-06 09:25 | -7.30048 | 111.92172 | 31801 ft | 475 kts | 275° |
| 2026-05-06 09:25 | -7.29468 | 111.85543 | 31804 ft | 475 kts | 275° |
| 2026-05-06 09:26 | -7.28886 | 111.78909 | 31800 ft | 475 kts | 275° |
| 2026-05-06 09:26 | -7.28303 | 111.72272 | 31800 ft | 476 kts | 275° |
| 2026-05-06 09:27 | -7.27719 | 111.65634 | 31800 ft | 476 kts | 275° |
| 2026-05-06 09:27 | -7.27135 | 111.58996 | 31797 ft | 476 kts | 275° |
| 2026-05-06 09:28 | -7.26548 | 111.52356 | 31793 ft | 476 kts | 275° |
| 2026-05-06 09:28 | -7.25960 | 111.45701 | 31794 ft | 477 kts | 275° |
| 2026-05-06 09:29 | -7.25471 | 111.40179 | 31793 ft | 476 kts | 275° |
| 2026-05-06 09:29 | -7.24881 | 111.33529 | 31791 ft | 477 kts | 275° |
| 2026-05-06 09:30 | -7.24291 | 111.26877 | 31790 ft | 477 kts | 275° |
| 2026-05-06 09:30 | -7.23698 | 111.20224 | 31789 ft | 477 kts | 275° |
| 2026-05-06 09:31 | -7.23105 | 111.13564 | 31787 ft | 477 kts | 275° |
| 2026-05-06 09:31 | -7.22511 | 111.06908 | 31788 ft | 477 kts | 275° |
| 2026-05-06 09:32 | -7.21915 | 111.00243 | 31782 ft | 478 kts | 275° |
| 2026-05-06 09:32 | -7.21318 | 110.93575 | 31785 ft | 478 kts | 275° |
| 2026-05-06 09:33 | -7.21275 | 110.86917 | 31786 ft | 477 kts | 257° |
| 2026-05-06 09:33 | -7.22328 | 110.83757 | 31784 ft | 477 kts | 244° |
| 2026-05-06 09:33 | -7.24091 | 110.80931 | 31786 ft | 478 kts | 230° |
| 2026-05-06 09:33 | -7.26453 | 110.78588 | 31790 ft | 478 kts | 217° |
| 2026-05-06 09:34 | -7.29286 | 110.76837 | 31793 ft | 479 kts | 205° |
| 2026-05-06 09:34 | -7.32411 | 110.75675 | 31774 ft | 479 kts | 192° |
| 2026-05-06 09:34 | -7.35717 | 110.75250 | 31799 ft | 481 kts | 184° |
| 2026-05-06 09:35 | -7.42405 | 110.74883 | 31803 ft | 482 kts | 182° |
| 2026-05-06 09:35 | -7.49041 | 110.74194 | 31802 ft | 480 kts | 198° |
| 2026-05-06 09:35 | -7.52077 | 110.72825 | 31783 ft | 479 kts | 212° |
| 2026-05-06 09:36 | -7.54681 | 110.70743 | 31642 ft | 478 kts | 226° |
| 2026-05-06 09:36 | -7.56888 | 110.68307 | 31236 ft | 477 kts | 228° |
| 2026-05-06 09:36 | -7.59092 | 110.65808 | 30607 ft | 477 kts | 229° |
| 2026-05-06 09:36 | -7.61277 | 110.63300 | 29758 ft | 479 kts | 229° |
| 2026-05-06 09:37 | -7.63483 | 110.60748 | 28749 ft | 483 kts | 229° |
| 2026-05-06 09:37 | -7.65691 | 110.58190 | 27848 ft | 484 kts | 229° |
| 2026-05-06 09:37 | -7.67903 | 110.55626 | 27031 ft | 484 kts | 229° |
| 2026-05-06 09:37 | -7.70102 | 110.53076 | 26296 ft | 481 kts | 229° |
| 2026-05-06 09:38 | -7.72297 | 110.50531 | 25542 ft | 480 kts | 229° |
| 2026-05-06 09:38 | -7.74484 | 110.47995 | 24785 ft | 479 kts | 229° |
| 2026-05-06 09:38 | -7.76585 | 110.45387 | 23964 ft | 479 kts | 236° |
| 2026-05-06 09:38 | -7.78100 | 110.42398 | 23103 ft | 480 kts | 251° |
| 2026-05-06 09:39 | -7.78842 | 110.39139 | 22389 ft | 474 kts | 261° |
| 2026-05-06 09:39 | -7.79339 | 110.35872 | 21678 ft | 470 kts | 261° |
| 2026-05-06 09:39 | -7.79791 | 110.32629 | 20946 ft | 465 kts | 263° |
| 2026-05-06 09:39 | -7.79785 | 110.29375 | 20209 ft | 463 kts | 276° |
| 2026-05-06 09:40 | -7.79449 | 110.26183 | 19648 ft | 455 kts | 275° |
| 2026-05-06 09:40 | -7.79100 | 110.23007 | 18873 ft | 455 kts | 276° |
| 2026-05-06 09:40 | -7.78375 | 110.16738 | 17355 ft | 451 kts | 276° |
| 2026-05-06 09:41 | -7.78010 | 110.13626 | 16889 ft | 441 kts | 275° |
| 2026-05-06 09:41 | -7.77654 | 110.10581 | 16022 ft | 441 kts | 275° |
| 2026-05-06 09:41 | -7.77295 | 110.07518 | 15383 ft | 433 kts | 274° |
| 2026-05-06 09:41 | -7.77372 | 110.04580 | 14927 ft | 414 kts | 258° |
| 2026-05-06 09:42 | -7.78236 | 110.01871 | 14650 ft | 400 kts | 242° |
| 2026-05-06 09:42 | -7.79710 | 109.99574 | 14458 ft | 383 kts | 227° |
| 2026-05-06 09:42 | -7.81605 | 109.97778 | 14305 ft | 367 kts | 215° |
| 2026-05-06 09:42 | -7.83748 | 109.96490 | 14130 ft | 352 kts | 202° |
| 2026-05-06 09:43 | -7.85962 | 109.95566 | 13981 ft | 339 kts | 199° |
| 2026-05-06 09:43 | -7.88139 | 109.94779 | 13836 ft | 326 kts | 197° |
| 2026-05-06 09:43 | -7.90268 | 109.94092 | 13702 ft | 315 kts | 194° |
| 2026-05-06 09:43 | -7.92326 | 109.93478 | 13569 ft | 303 kts | 194° |
| 2026-05-06 09:44 | -7.94294 | 109.92917 | 13436 ft | 292 kts | 193° |
| 2026-05-06 09:44 | -7.96227 | 109.92378 | 13304 ft | 287 kts | 193° |
| 2026-05-06 09:44 | -7.98170 | 109.91846 | 13166 ft | 289 kts | 192° |
| 2026-05-06 09:44 | -8.00113 | 109.91321 | 13042 ft | 289 kts | 193° |
| 2026-05-06 09:45 | -8.02055 | 109.90798 | 12913 ft | 288 kts | 192° |
| 2026-05-06 09:45 | -8.04004 | 109.90284 | 12493 ft | 291 kts | 192° |
| 2026-05-06 09:45 | -8.05970 | 109.89766 | 12064 ft | 293 kts | 192° |
| 2026-05-06 09:45 | -8.07940 | 109.89245 | 11656 ft | 293 kts | 192° |
| 2026-05-06 09:46 | -8.09911 | 109.88725 | 11235 ft | 293 kts | 192° |
| 2026-05-06 09:46 | -8.11881 | 109.88205 | 10885 ft | 291 kts | 192° |
| 2026-05-06 09:46 | -8.13853 | 109.87797 | 10459 ft | 289 kts | 179° |
| 2026-05-06 09:46 | -8.15807 | 109.88140 | 9984 ft | 286 kts | 153° |
| 2026-05-06 09:47 | -8.17408 | 109.89279 | 9546 ft | 282 kts | 130° |
| 2026-05-06 09:47 | -8.18421 | 109.90966 | 8959 ft | 285 kts | 108° |
| 2026-05-06 09:47 | -8.18648 | 109.92946 | 8421 ft | 288 kts | 82° |
| 2026-05-06 09:47 | -8.17976 | 109.94806 | 8029 ft | 280 kts | 56° |
| 2026-05-06 09:48 | -8.16673 | 109.96190 | 7799 ft | 266 kts | 44° |
| 2026-05-06 09:48 | -8.15253 | 109.97392 | 7521 ft | 269 kts | 38° |
| 2026-05-06 09:48 | -8.13714 | 109.98482 | 7065 ft | 269 kts | 36° |
| 2026-05-06 09:48 | -8.12030 | 109.99254 | 6583 ft | 268 kts | 11° |
| 2026-05-06 09:49 | -8.10170 | 109.99153 | 6080 ft | 269 kts | 343° |
| 2026-05-06 09:49 | -8.08522 | 109.98349 | 5689 ft | 263 kts | 334° |
| 2026-05-06 09:49 | -8.06924 | 109.97480 | 5380 ft | 253 kts | 333° |
| 2026-05-06 09:49 | -8.05420 | 109.96634 | 5092 ft | 242 kts | 332° |
| 2026-05-06 09:50 | -8.04013 | 109.95822 | 4899 ft | 234 kts | 332° |
| 2026-05-06 09:50 | -8.02601 | 109.94999 | 4527 ft | 235 kts | 332° |
| 2026-05-06 09:50 | -8.01195 | 109.94170 | 4166 ft | 232 kts | 332° |
| 2026-05-06 09:50 | -7.99816 | 109.93352 | 3819 ft | 228 kts | 332° |
| 2026-05-06 09:51 | -7.98474 | 109.92552 | 3535 ft | 220 kts | 331° |
| 2026-05-06 09:51 | -7.97190 | 109.91784 | 3247 ft | 210 kts | 331° |
| 2026-05-06 09:51 | -7.95945 | 109.91036 | 2977 ft | 208 kts | 332° |
| 2026-05-06 09:51 | -7.94693 | 109.90286 | 2694 ft | 210 kts | 332° |
| 2026-05-06 09:52 | -7.93402 | 109.89605 | 2388 ft | 210 kts | 345° |
| 2026-05-06 09:52 | -7.91981 | 109.89224 | 2209 ft | 211 kts | 350° |
| 2026-05-06 09:52 | -7.90550 | 109.88890 | 2053 ft | 211 kts | 351° |
| 2026-05-06 09:52 | -7.89154 | 109.88852 | 1821 ft | 198 kts | 24° |
| 2026-05-06 09:53 | -7.88068 | 109.89601 | 1661 ft | 185 kts | 54° |
| 2026-05-06 09:53 | -7.87248 | 109.90603 | 1588 ft | 186 kts | 56° |
| 2026-05-06 09:53 | -7.86453 | 109.91621 | 1361 ft | 183 kts | 61° |
| 2026-05-06 09:53 | -7.86136 | 109.92779 | 1243 ft | 168 kts | 99° |
| 2026-05-06 09:54 | -7.86333 | 109.93915 | 1335 ft | 164 kts | 105° |
| 2026-05-06 09:54 | -7.86652 | 109.95021 | 1327 ft | 165 kts | 109° |
| 2026-05-06 09:54 | -7.87035 | 109.96112 | 1296 ft | 164 kts | 111° |
| 2026-05-06 09:54 | -7.87427 | 109.97189 | 1310 ft | 162 kts | 110° |
| 2026-05-06 09:55 | -7.87809 | 109.98241 | 1194 ft | 156 kts | 110° |
| 2026-05-06 09:55 | -7.88174 | 109.99244 | 1029 ft | 151 kts | 110° |
| 2026-05-06 09:55 | -7.88530 | 110.00237 | 816 ft | 148 kts | 111° |
| 2026-05-06 09:55 | -7.88881 | 110.01184 | 711 ft | 143 kts | 111° |
| 2026-05-06 09:56 | -7.89217 | 110.02116 | 523 ft | 140 kts | 109° |
| 2026-05-06 09:56 | -7.89556 | 110.03046 | 318 ft | 143 kts | 110° |
| 2026-05-06 09:56 | -7.89892 | 110.03980 | 137 ft | 141 kts | 111° |
| 2026-05-06 09:56 | -7.90215 | 110.04876 | 36 ft | 126 kts | 113° |
| 2026-05-06 09:57 | -7.90450 | 110.05505 | 35 ft | 66 kts | 109° |
| 2026-05-06 09:57 | -7.90593 | 110.05891 | 36 ft | 52 kts | 111° |
| 2026-05-06 09:57 | -7.90657 | 110.06196 | 35 ft | 29 kts | 88° |
| 2026-05-06 09:57 | -7.90611 | 110.06335 | 36 ft | 16 kts | 8° |
| 2026-05-06 09:58 | -7.90542 | 110.06248 | 36 ft | 18 kts | 292° |
| 2026-05-06 09:58 | -7.90490 | 110.06109 | 36 ft | 25 kts | 290° |
| 2026-05-06 09:58 | -7.90421 | 110.05925 | 36 ft | 28 kts | 290° |
| 2026-05-06 09:58 | -7.90352 | 110.05761 | 36 ft | 21 kts | 323° |
| 2026-05-06 09:59 | -7.90227 | 110.05785 | 36 ft | 15 kts | 26° |
| 2026-05-06 09:59 | -7.90172 | 110.05846 | 34 ft | 9 kts | 23° |
| 2026-05-06 09:59 | -7.90123 | 110.05864 | 35 ft | 3 kts | 20° |
| 2026-05-06 09:59 | -7.90115 | 110.05867 | 35 ft | 0 kts | 20° |